Terminal Aerodrome Forecast
Issued by NWS Greer, SC

Home | Current Version | Previous Version | Text Only | Print | Product List | Glossary On
Versions: 1 2 3 4 5 6 7 8 9 10 11 12 13 14 15 16 17 18 19 20 21 22 23 24 25 26 27 28 29 30 31 32 33 34 35 36 37 38 39 40 41 42 43 44 45 46 47 48 49
000
FTUS42 KGSP 271740
TAFCLT
TAF
KCLT 271740Z 2718/2818 20006KT P6SM BKN040
      TEMPO 2718/2720 BKN025 BKN150
     FM272200 20003KT P6SM VCSH BKN045
     FM280300 00000KT P6SM BKN035
     FM281200 00000KT P6SM BKN250
     FM281300 20003KT P6SM BKN250=

USA.gov is the U.S. government's official web portal to all federal, state and local government web resources and services.